createdAt,value
2019-04-05T00:02:53.491Z,4.07
2019-04-05T00:07:59.587Z,4.47
2019-04-05T00:13:03.806Z,4.60
2019-04-05T00:18:09.797Z,4.87
2019-04-05T00:23:14.025Z,4.57
2019-04-05T00:28:19.407Z,5.03
2019-04-05T00:33:24.742Z,4.23
2019-04-05T00:38:28.900Z,4.80
2019-04-05T00:43:33.052Z,4.73
2019-04-05T00:48:37.438Z,4.77
2019-04-05T00:53:41.670Z,4.90
2019-04-05T00:58:45.803Z,4.73
2019-04-05T01:03:49.945Z,4.60
2019-04-05T01:08:54.355Z,4.50
2019-04-05T01:13:58.694Z,4.80
2019-04-05T01:19:04.918Z,5.37
2019-04-05T01:24:10.241Z,5.27
2019-04-05T01:29:16.154Z,5.33
2019-04-05T01:34:20.302Z,5.13
2019-04-05T01:39:24.671Z,4.60
2019-04-05T01:44:29.958Z,4.17
2019-04-05T01:49:35.048Z,3.27
2019-04-05T01:54:39.452Z,2.43
2019-04-05T01:59:43.736Z,2.00
2019-04-05T02:04:52.603Z,2.03
2019-04-05T02:09:56.329Z,2.47
2019-04-05T02:15:01.605Z,3.30
2019-04-05T02:20:05.944Z,3.00
2019-04-05T02:25:11.435Z,2.80
2019-04-05T02:30:18.051Z,2.70
2019-04-05T02:35:22.213Z,3.30
2019-04-05T02:40:27.688Z,3.27
2019-04-05T02:45:34.569Z,3.17
2019-04-05T02:50:41.116Z,2.87
2019-04-05T02:55:46.099Z,3.30
2019-04-05T03:00:50.522Z,2.60
2019-04-05T03:05:54.788Z,3.03
2019-04-05T03:11:05.465Z,3.07
2019-04-05T03:16:12.552Z,2.93
2019-04-05T03:21:17.741Z,2.53
2019-04-05T03:26:28.018Z,2.10
2019-04-05T03:31:32.797Z,3.00
2019-04-05T03:36:37.895Z,2.40
2019-04-05T03:41:42.077Z,2.60
2019-04-05T03:46:56.327Z,2.67
2019-04-05T03:51:52.374Z,1.97
2019-04-05T03:56:56.590Z,2.00
2019-04-05T04:02:01.375Z,2.10
2019-04-05T04:07:05.558Z,1.90
2019-04-05T04:12:09.759Z,2.40
2019-04-05T04:17:14.235Z,2.87
2019-04-05T04:22:20.245Z,2.77
2019-04-05T04:27:24.433Z,2.47
2019-04-05T04:32:32.496Z,2.93
2019-04-05T04:37:37.104Z,2.10
2019-04-05T04:42:42.272Z,2.93
2019-04-05T04:47:46.762Z,2.17
2019-04-05T04:52:52.396Z,3.00
2019-04-05T04:57:56.662Z,2.83
2019-04-05T05:03:01.198Z,2.70
2019-04-05T05:08:06.282Z,2.70
2019-04-05T05:13:10.927Z,2.47
2019-04-05T05:18:15.169Z,2.60
2019-04-05T05:23:19.376Z,3.37
2019-04-05T05:28:23.623Z,3.17
2019-04-05T05:33:27.886Z,2.93
2019-04-05T05:38:32.185Z,2.70
2019-04-05T05:43:36.519Z,2.63
2019-04-05T05:48:41.425Z,3.30
2019-04-05T05:53:45.882Z,3.27
2019-04-05T05:58:50.031Z,3.17
2019-04-05T06:03:54.205Z,3.60
2019-04-05T06:08:59.626Z,3.10
2019-04-05T06:14:03.850Z,4.57
2019-04-05T06:19:08.041Z,4.67
2019-04-05T06:24:12.189Z,4.77
2019-04-05T06:29:17.659Z,5.13
2019-04-05T06:34:22.480Z,4.83
2019-04-05T06:39:28.036Z,5.43
2019-04-05T06:44:32.421Z,5.03
2019-04-05T06:49:36.946Z,4.87
2019-04-05T06:54:41.336Z,4.77
2019-04-05T06:59:51.277Z,5.37
2019-04-05T07:04:55.463Z,5.47
2019-04-05T07:10:02.735Z,5.40
2019-04-05T07:15:06.990Z,5.63
2019-04-05T07:20:14.379Z,4.93
2019-04-05T07:25:19.644Z,5.33
2019-04-05T07:30:25.353Z,4.60
2019-04-05T07:35:33.532Z,5.03
2019-04-05T07:40:37.305Z,5.23
2019-04-05T07:45:42.060Z,4.90
2019-04-05T07:50:46.312Z,5.20
2019-04-05T07:55:50.495Z,5.07
2019-04-05T08:00:55.430Z,5.10
2019-04-05T08:06:00.950Z,4.70
2019-04-05T08:11:06.116Z,4.53
2019-04-05T08:16:12.213Z,4.37
2019-04-05T08:21:16.438Z,4.27
2019-04-05T08:26:20.636Z,4.13
2019-04-05T08:31:26.686Z,4.67
2019-04-05T08:36:32.758Z,4.17
2019-04-05T08:41:37.311Z,4.50
2019-04-05T08:46:41.569Z,5.00
2019-04-05T08:51:46.080Z,4.93
2019-04-05T08:56:51.587Z,4.83
2019-04-05T09:01:55.777Z,4.97
2019-04-05T09:07:00.458Z,4.77
2019-04-05T09:12:06.301Z,4.57
2019-04-05T09:17:10.445Z,4.23
2019-04-05T09:22:14.589Z,4.97
2019-04-05T09:27:18.774Z,5.63
2019-04-05T09:32:23.260Z,5.40
2019-04-05T09:37:27.710Z,4.10
2019-04-05T09:42:31.884Z,4.23
2019-04-05T09:47:36.461Z,3.97
2019-04-05T09:52:40.630Z,3.67
2019-04-05T09:57:45.983Z,4.17
2019-04-05T10:02:56.668Z,4.30
2019-04-05T10:08:01.150Z,3.57
2019-04-05T10:13:05.372Z,3.93
2019-04-05T10:18:09.616Z,3.90
2019-04-05T10:23:13.873Z,4.23
2019-04-05T10:28:18.042Z,4.93
2019-04-05T10:33:23.307Z,4.00
2019-04-05T10:38:27.501Z,4.23
2019-04-05T10:43:31.977Z,4.83
2019-04-05T10:48:36.130Z,4.10
2019-04-05T10:53:41.839Z,4.40
2019-04-05T10:58:46.922Z,4.40
2019-04-05T11:03:51.181Z,4.60
2019-04-05T11:08:55.633Z,4.63
2019-04-05T11:14:12.938Z,4.30
2019-04-05T11:19:05.961Z,4.10
2019-04-05T11:24:10.096Z,4.20
2019-04-05T11:29:14.848Z,4.50
2019-04-05T11:34:20.168Z,5.30
2019-04-05T11:39:24.973Z,4.47
2019-04-05T11:44:39.239Z,4.90
2019-04-05T11:49:45.137Z,4.80
2019-04-05T11:54:49.262Z,4.87
2019-04-05T11:59:53.892Z,5.73
2019-04-05T12:05:00.346Z,5.27
2019-04-05T12:10:06.573Z,5.17
2019-04-05T12:15:10.917Z,5.03
2019-04-05T12:20:20.593Z,5.23
2019-04-05T12:25:26.702Z,5.47
2019-04-05T12:30:32.338Z,5.20
2019-04-05T12:35:37.675Z,5.47
2019-04-05T12:40:42.128Z,5.73
2019-04-05T12:45:48.191Z,5.33
2019-04-05T12:51:01.054Z,6.17
2019-04-05T12:55:59.163Z,5.80
2019-04-05T13:01:03.283Z,6.03
2019-04-05T13:06:07.689Z,5.83
2019-04-05T13:11:11.894Z,6.17
2019-04-05T13:16:15.997Z,6.43
2019-04-05T13:21:27.255Z,6.63
2019-04-05T13:26:27.821Z,6.10
2019-04-05T13:31:36.940Z,6.07
2019-04-05T13:36:37.928Z,5.97
2019-04-05T13:41:42.056Z,5.70
2019-04-05T13:46:55.358Z,5.60
2019-04-05T13:51:59.473Z,6.10
2019-04-05T13:57:03.740Z,6.07
2019-04-05T14:02:11.084Z,6.60
2019-04-05T14:07:15.211Z,6.30
2019-04-05T14:12:20.308Z,6.13
2019-04-05T14:17:25.643Z,5.77
2019-04-05T14:22:30.830Z,6.53
2019-04-05T14:27:35.641Z,6.37
2019-04-05T14:32:41.237Z,6.67
2019-04-05T14:37:48.311Z,6.33
2019-04-05T14:42:54.057Z,7.07
2019-04-05T14:47:59.365Z,6.97
2019-04-05T14:53:03.549Z,7.60
2019-04-05T14:58:10.335Z,6.77
2019-04-05T15:03:14.197Z,6.70
2019-04-05T15:08:20.764Z,6.90
2019-04-05T15:13:24.947Z,7.07
2019-04-05T15:18:31.166Z,7.43
2019-04-05T15:23:35.549Z,7.33
2019-04-05T15:28:39.706Z,6.63
2019-04-05T15:33:43.830Z,6.10
2019-04-05T15:38:48.010Z,6.37
2019-04-05T15:43:54.077Z,6.63
2019-04-05T15:49:00.108Z,6.93
2019-04-05T15:54:05.525Z,6.83
2019-04-05T15:59:09.986Z,6.83
2019-04-05T16:04:14.328Z,6.50
2019-04-05T16:09:18.825Z,6.13
2019-04-05T16:14:23.429Z,6.20
2019-04-05T16:19:27.837Z,6.23
2019-04-05T16:24:32.226Z,6.47
2019-04-05T16:29:36.641Z,7.10
2019-04-05T16:34:42.077Z,6.77
2019-04-05T16:39:48.126Z,6.13
2019-04-05T16:44:53.438Z,7.57
2019-04-05T16:49:57.808Z,7.40
2019-04-05T16:55:02.299Z,6.03
2019-04-05T17:00:09.922Z,6.83
2019-04-05T17:05:16.587Z,7.03
2019-04-05T17:10:21.066Z,7.13
2019-04-05T17:15:25.345Z,6.70
2019-04-05T17:20:31.156Z,6.73
2019-04-05T17:25:35.396Z,6.13
2019-04-05T17:30:39.850Z,6.80
2019-04-05T17:35:44.395Z,5.67
2019-04-05T17:40:49.205Z,6.40
2019-04-05T17:45:53.559Z,6.97
2019-04-05T17:50:58.140Z,5.97
2019-04-05T17:56:02.661Z,4.03
2019-04-05T18:01:06.992Z,6.03
2019-04-05T18:06:12.399Z,6.63
2019-04-05T18:11:17.596Z,6.40
2019-04-05T18:16:22.208Z,6.60
2019-04-05T18:21:28.082Z,6.43
2019-04-05T18:26:32.955Z,6.33
2019-04-05T18:31:37.381Z,6.33
2019-04-05T18:36:43.032Z,6.53
2019-04-05T18:41:47.396Z,7.13
2019-04-05T18:46:51.983Z,5.97
2019-04-05T18:51:56.102Z,6.23
2019-04-05T18:57:00.192Z,6.50
2019-04-05T19:02:05.008Z,5.73
2019-04-05T19:07:09.138Z,5.70
2019-04-05T19:12:13.396Z,4.97
2019-04-05T19:17:23.789Z,5.53
2019-04-05T19:22:23.350Z,6.03
2019-04-05T19:27:27.715Z,6.33
2019-04-05T19:52:56.940Z,6.67
2019-04-05T19:58:02.401Z,6.30
2019-04-05T20:03:06.525Z,6.83
2019-04-05T20:08:10.631Z,8.37
2019-04-05T20:13:15.438Z,7.93
2019-04-05T20:18:21.260Z,8.43
2019-04-05T20:23:25.483Z,9.27
2019-04-05T20:28:29.616Z,8.73
2019-04-05T20:33:34.013Z,9.87
2019-04-05T20:38:39.986Z,9.27
2019-04-05T20:43:44.178Z,10.43
2019-04-05T20:48:48.577Z,10.03
2019-04-05T20:53:52.760Z,10.13
2019-04-05T20:58:56.885Z,9.07
2019-04-05T21:04:01.065Z,10.90
2019-04-05T21:09:08.571Z,8.47
2019-04-05T21:14:13.856Z,9.67
2019-04-05T21:19:19.527Z,9.60
2019-04-05T21:24:35.704Z,10.20
2019-04-05T21:29:33.344Z,11.20
2019-04-05T21:34:37.764Z,10.60
2019-04-05T21:39:42.224Z,9.73
2019-04-05T21:44:46.520Z,10.37
2019-04-05T21:49:50.985Z,10.13
2019-04-05T21:54:55.342Z,10.70
2019-04-05T21:59:59.456Z,10.60
2019-04-05T22:05:04.133Z,11.57
2019-04-05T22:10:09.939Z,11.17
2019-04-05T22:15:14.333Z,9.30
2019-04-05T22:20:18.444Z,10.60
2019-04-05T22:25:22.895Z,9.50
2019-04-05T22:30:28.545Z,9.57
2019-04-05T22:35:32.765Z,8.90
2019-04-05T22:40:37.136Z,10.37
2019-04-05T22:45:41.248Z,9.40
2019-04-05T22:50:45.589Z,10.33
2019-04-05T22:55:49.692Z,9.30
2019-04-05T23:00:54.038Z,8.10
2019-04-05T23:05:58.609Z,9.13
2019-04-05T23:11:02.888Z,10.00
2019-04-05T23:16:07.046Z,9.27
2019-04-05T23:21:11.446Z,10.67
2019-04-05T23:26:17.080Z,11.33
2019-04-05T23:31:21.233Z,10.60
2019-04-05T23:36:25.665Z,10.80
2019-04-05T23:41:35.971Z,11.03
2019-04-05T23:46:38.786Z,9.97
2019-04-05T23:51:43.181Z,10.37
2019-04-05T23:56:47.354Z,10.03
